Time,TemperatureF,DewpointF,PressureIn,WindDirection,WindDirectionDegrees,WindSpeedMPH,WindSpeedGustMPH,Humidity,HourlyPrecipIn,Conditions,Clouds,dailyrainin,SolarRadiationWatts/m^2,SoftwareType,DateUTC
2013-07-26 00:02:00,71.0,67.0,-100.00,SSW,209,3.0,10.0,88,0.00,,,0.00,0.000000,,2013-07-26 05:02:00,
2013-07-26 00:32:00,69.0,68.0,-100.00,SSW,196,4.0,7.0,95,0.00,,,0.00,0.000000,,2013-07-26 05:32:00,
2013-07-26 00:43:00,69.0,68.0,-100.00,SSW,196,4.0,7.0,95,0.00,,,0.00,0.000000,,2013-07-26 05:43:00,
2013-07-26 00:52:00,69.0,68.0,-100.00,SSW,196,4.0,7.0,95,0.00,,,0.00,0.000000,,2013-07-26 05:52:00,
2013-07-26 01:02:00,69.0,68.0,-100.00,SSW,196,4.0,7.0,95,0.00,,,0.00,0.000000,,2013-07-26 06:02:00,
2013-07-26 01:33:00,69.0,68.0,-100.00,WNW,289,1.0,3.0,97,0.00,,,0.00,0.000000,,2013-07-26 06:33:00,
2013-07-26 01:43:00,69.0,68.0,-100.00,WNW,289,1.0,3.0,97,0.00,,,0.00,0.000000,,2013-07-26 06:43:00,
2013-07-26 01:52:00,69.0,68.0,-100.00,WNW,289,1.0,3.0,97,0.00,,,0.00,0.000000,,2013-07-26 06:52:00,
2013-07-26 02:02:00,69.0,68.0,-100.00,WNW,289,1.0,3.0,97,0.00,,,0.00,0.000000,,2013-07-26 07:02:00,
2013-07-26 02:32:00,67.0,66.0,-100.00,SSW,199,6.0,12.0,97,0.15,,,0.15,0.000000,,2013-07-26 07:32:00,
2013-07-26 02:43:00,67.0,66.0,-100.00,SSW,199,6.0,12.0,97,0.15,,,0.15,0.000000,,2013-07-26 07:43:00,
2013-07-26 02:53:00,67.0,66.0,-100.00,SSW,199,6.0,12.0,97,0.15,,,0.15,0.000000,,2013-07-26 07:53:00,
2013-07-26 03:02:00,67.0,66.0,-100.00,SSW,199,6.0,12.0,97,0.15,,,0.15,0.000000,,2013-07-26 08:02:00,
2013-07-26 03:32:00,67.0,66.0,-100.00,SW,216,5.0,9.0,96,0.00,,,0.15,0.000000,,2013-07-26 08:32:00,
2013-07-26 03:44:00,67.0,66.0,-100.00,SW,216,5.0,9.0,96,0.00,,,0.15,0.000000,,2013-07-26 08:44:00,
2013-07-26 03:52:00,67.0,66.0,-100.00,SW,216,5.0,9.0,96,0.00,,,0.15,0.000000,,2013-07-26 08:52:00,
2013-07-26 04:02:00,67.0,66.0,-100.00,SW,216,5.0,9.0,96,0.00,,,0.15,0.000000,,2013-07-26 09:02:00,
2013-07-26 04:32:00,66.0,65.0,-100.00,SSW,212,4.0,11.0,98,0.05,,,0.20,0.000000,,2013-07-26 09:32:00,
2013-07-26 04:43:00,66.0,65.0,-100.00,SSW,212,4.0,11.0,98,0.05,,,0.20,0.000000,,2013-07-26 09:43:00,
2013-07-26 04:52:00,66.0,65.0,-100.00,SSW,212,4.0,11.0,98,0.05,,,0.20,0.000000,,2013-07-26 09:52:00,
2013-07-26 05:02:00,66.0,65.0,-100.00,SSW,212,4.0,11.0,98,0.05,,,0.20,0.000000,,2013-07-26 10:02:00,
2013-07-26 05:33:00,66.0,66.0,-100.00,NNW,332,2.0,6.0,100,0.27,,,0.47,0.000000,,2013-07-26 10:33:00,
2013-07-26 05:43:00,66.0,66.0,-100.00,NNW,332,2.0,6.0,100,0.27,,,0.47,0.000000,,2013-07-26 10:43:00,
2013-07-26 05:53:00,66.0,66.0,-100.00,NNW,332,2.0,6.0,100,0.27,,,0.47,0.000000,,2013-07-26 10:53:00,
2013-07-26 06:02:00,66.0,66.0,-100.00,NNW,332,2.0,6.0,100,0.27,,,0.47,0.000000,,2013-07-26 11:02:00,
2013-07-26 06:32:00,67.0,67.0,-100.00,South,189,2.0,8.0,100,0.28,,,0.75,0.000000,,2013-07-26 11:32:00,
2013-07-26 06:43:00,67.0,67.0,-100.00,South,189,2.0,8.0,100,0.28,,,0.75,0.000000,,2013-07-26 11:43:00,
2013-07-26 06:52:00,67.0,67.0,-100.00,South,189,2.0,8.0,100,0.28,,,0.75,0.000000,,2013-07-26 11:52:00,
2013-07-26 07:02:00,67.0,67.0,-100.00,South,189,2.0,8.0,100,0.28,,,0.75,0.000000,,2013-07-26 12:02:00,
2013-07-26 07:33:00,68.0,68.0,-100.00,SW,234,1.0,7.0,100,0.00,,,0.75,17.000000,,2013-07-26 12:33:00,
2013-07-26 07:43:00,68.0,68.0,-100.00,SW,234,1.0,7.0,100,0.00,,,0.75,17.000000,,2013-07-26 12:43:00,
2013-07-26 07:53:00,68.0,68.0,-100.00,SW,234,1.0,7.0,100,0.00,,,0.75,17.000000,,2013-07-26 12:53:00,
2013-07-26 08:02:00,68.0,68.0,-100.00,SW,234,1.0,7.0,100,0.00,,,0.75,17.000000,,2013-07-26 13:02:00,
2013-07-26 08:32:00,71.0,69.0,-100.00,West,269,3.0,7.0,93,0.00,,,0.75,146.000000,,2013-07-26 13:32:00,
2013-07-26 08:43:00,71.0,69.0,-100.00,West,269,3.0,7.0,93,0.00,,,0.75,146.000000,,2013-07-26 13:43:00,
2013-07-26 08:53:00,71.0,69.0,-100.00,West,269,3.0,7.0,93,0.00,,,0.75,146.000000,,2013-07-26 13:53:00,
2013-07-26 09:02:00,71.0,69.0,-100.00,West,269,3.0,7.0,93,0.00,,,0.75,146.000000,,2013-07-26 14:02:00,
2013-07-26 09:33:00,73.0,70.0,-100.00,WNW,293,4.0,11.0,91,0.00,,,0.75,226.000000,,2013-07-26 14:33:00,
2013-07-26 09:43:00,73.0,70.0,-100.00,WNW,293,4.0,11.0,91,0.00,,,0.75,226.000000,,2013-07-26 14:43:00,
2013-07-26 09:53:00,73.0,70.0,-100.00,WNW,293,4.0,11.0,91,0.00,,,0.75,226.000000,,2013-07-26 14:53:00,
2013-07-26 10:02:00,73.0,70.0,-100.00,WNW,293,4.0,11.0,91,0.00,,,0.75,226.000000,,2013-07-26 15:02:00,
2013-07-26 10:33:00,75.0,69.0,-100.00,WNW,295,5.0,11.0,83,0.00,,,0.75,376.000000,,2013-07-26 15:33:00,
2013-07-26 10:43:00,75.0,69.0,-100.00,WNW,295,5.0,11.0,83,0.00,,,0.75,376.000000,,2013-07-26 15:43:00,
2013-07-26 10:53:00,75.0,69.0,-100.00,WNW,295,5.0,11.0,83,0.00,,,0.75,376.000000,,2013-07-26 15:53:00,
2013-07-26 11:02:00,75.0,69.0,-100.00,WNW,295,5.0,11.0,83,0.00,,,0.75,376.000000,,2013-07-26 16:02:00,
2013-07-26 11:32:00,77.0,68.0,-100.00,NW,325,10.0,15.0,75,0.01,,,0.76,609.000000,,2013-07-26 16:32:00,
2013-07-26 11:43:00,77.0,68.0,-100.00,NW,325,10.0,15.0,75,0.01,,,0.76,609.000000,,2013-07-26 16:43:00,
2013-07-26 11:54:00,77.0,68.0,-100.00,NW,325,10.0,15.0,75,0.01,,,0.76,609.000000,,2013-07-26 16:54:00,
2013-07-26 12:02:00,77.0,68.0,-100.00,NW,325,10.0,15.0,75,0.01,,,0.76,609.000000,,2013-07-26 17:02:00,
2013-07-26 12:33:00,77.0,66.0,-100.00,NW,315,8.0,17.0,69,0.00,,,0.76,567.000000,,2013-07-26 17:33:00,
2013-07-26 12:43:00,77.0,66.0,-100.00,NW,315,8.0,17.0,69,0.00,,,0.76,567.000000,,2013-07-26 17:43:00,
2013-07-26 12:53:00,77.0,66.0,-100.00,NW,315,8.0,17.0,69,0.00,,,0.76,567.000000,,2013-07-26 17:53:00,
2013-07-26 13:03:00,77.0,66.0,-100.00,NW,315,8.0,17.0,69,0.00,,,0.76,567.000000,,2013-07-26 18:03:00,
2013-07-26 13:33:00,78.0,61.0,-100.00,NW,325,9.0,16.0,55,0.00,,,0.76,807.000000,,2013-07-26 18:33:00,
2013-07-26 13:44:00,78.0,61.0,-100.00,NW,325,9.0,16.0,55,0.00,,,0.76,807.000000,,2013-07-26 18:44:00,
2013-07-26 13:52:00,78.0,61.0,-100.00,NW,325,9.0,16.0,55,0.00,,,0.76,807.000000,,2013-07-26 18:52:00,
2013-07-26 14:03:00,78.0,61.0,-100.00,NW,325,9.0,16.0,55,0.00,,,0.76,807.000000,,2013-07-26 19:03:00,
2013-07-26 14:32:00,79.0,58.0,-100.00,NW,324,10.0,17.0,49,0.00,,,0.76,848.000000,,2013-07-26 19:32:00,
2013-07-26 14:43:00,79.0,58.0,-100.00,NW,324,10.0,17.0,49,0.00,,,0.76,848.000000,,2013-07-26 19:43:00,
2013-07-26 14:52:00,79.0,58.0,-100.00,NW,324,10.0,17.0,49,0.00,,,0.76,848.000000,,2013-07-26 19:52:00,
2013-07-26 15:02:00,79.0,58.0,-100.00,NW,324,10.0,17.0,49,0.00,,,0.76,848.000000,,2013-07-26 20:02:00,
2013-07-26 15:32:00,79.0,53.0,-100.00,NW,315,10.0,19.0,41,0.00,,,0.76,846.000000,,2013-07-26 20:32:00,
2013-07-26 15:43:00,79.0,53.0,-100.00,NW,315,10.0,19.0,41,0.00,,,0.76,846.000000,,2013-07-26 20:43:00,
2013-07-26 15:53:00,79.0,53.0,-100.00,NW,315,10.0,19.0,41,0.00,,,0.76,846.000000,,2013-07-26 20:53:00,
2013-07-26 16:32:00,79.0,54.0,-100.00,NW,311,9.0,17.0,42,0.00,,,0.76,782.000000,,2013-07-26 21:32:00,
2013-07-26 16:43:00,79.0,54.0,-100.00,NW,311,9.0,17.0,42,0.00,,,0.76,782.000000,,2013-07-26 21:43:00,
2013-07-26 16:53:00,79.0,54.0,-100.00,NW,311,9.0,17.0,42,0.00,,,0.76,782.000000,,2013-07-26 21:53:00,
2013-07-26 17:02:00,79.0,54.0,-100.00,NW,311,9.0,17.0,42,0.00,,,0.76,782.000000,,2013-07-26 22:02:00,
2013-07-26 17:33:00,78.0,56.0,-100.00,NNW,331,11.0,21.0,46,0.00,,,0.76,656.000000,,2013-07-26 22:33:00,
2013-07-26 17:43:00,78.0,56.0,-100.00,NNW,331,11.0,21.0,46,0.00,,,0.76,656.000000,,2013-07-26 22:43:00,
2013-07-26 17:53:00,78.0,56.0,-100.00,NNW,331,11.0,21.0,46,0.00,,,0.76,656.000000,,2013-07-26 22:53:00,
2013-07-26 18:02:00,78.0,56.0,-100.00,NNW,331,11.0,21.0,46,0.00,,,0.76,656.000000,,2013-07-26 23:02:00,
2013-07-26 18:32:00,74.0,55.0,-100.00,NNW,330,12.0,22.0,51,0.00,,,0.76,425.000000,,2013-07-26 23:32:00,
2013-07-26 18:43:00,74.0,55.0,-100.00,NNW,330,12.0,22.0,51,0.00,,,0.76,425.000000,,2013-07-26 23:43:00,
2013-07-26 18:53:00,74.0,55.0,-100.00,NNW,330,12.0,22.0,51,0.00,,,0.76,425.000000,,2013-07-26 23:53:00,
2013-07-26 19:02:00,74.0,55.0,-100.00,NNW,330,12.0,22.0,51,0.00,,,0.76,425.000000,,2013-07-27 00:02:00,
2013-07-26 19:32:00,72.0,53.0,-100.00,NNW,330,8.0,17.0,52,0.00,,,0.76,318.000000,,2013-07-27 00:32:00,
2013-07-26 19:43:00,72.0,53.0,-100.00,NNW,330,8.0,17.0,52,0.00,,,0.76,318.000000,,2013-07-27 00:43:00,
2013-07-26 19:53:00,72.0,53.0,-100.00,NNW,330,8.0,17.0,52,0.00,,,0.76,318.000000,,2013-07-27 00:53:00,
2013-07-26 20:02:00,72.0,53.0,-100.00,NNW,330,8.0,17.0,52,0.00,,,0.76,318.000000,,2013-07-27 01:02:00,
2013-07-26 20:32:00,68.0,53.0,-100.00,NNW,328,6.0,16.0,58,0.00,,,0.76,131.000000,,2013-07-27 01:32:00,
2013-07-26 20:44:00,68.0,53.0,-100.00,NNW,328,6.0,16.0,58,0.00,,,0.76,131.000000,,2013-07-27 01:44:00,
2013-07-26 20:53:00,68.0,53.0,-100.00,NNW,328,6.0,16.0,58,0.00,,,0.76,131.000000,,2013-07-27 01:53:00,
2013-07-26 21:02:00,68.0,53.0,-100.00,NNW,328,6.0,16.0,58,0.00,,,0.76,131.000000,,2013-07-27 02:02:00,
2013-07-26 21:32:00,63.0,54.0,-100.00,WNW,299,2.0,9.0,72,0.00,,,-99.99,6.000000,,2013-07-27 02:32:00,
2013-07-26 21:43:00,63.0,54.0,-100.00,WNW,299,2.0,9.0,72,0.00,,,-99.99,6.000000,,2013-07-27 02:43:00,
2013-07-26 21:53:00,63.0,54.0,-100.00,WNW,299,2.0,9.0,72,0.00,,,-99.99,6.000000,,2013-07-27 02:53:00,
2013-07-26 22:03:00,63.0,54.0,-100.00,WNW,299,2.0,9.0,72,0.00,,,-99.99,6.000000,,2013-07-27 03:03:00,
2013-07-26 22:33:00,60.0,53.0,-100.00,WNW,283,2.0,5.0,79,0.00,,,0.76,0.000000,,2013-07-27 03:33:00,
2013-07-26 22:44:00,60.0,53.0,-100.00,WNW,283,2.0,5.0,79,0.00,,,0.76,0.000000,,2013-07-27 03:44:00,
2013-07-26 22:52:00,60.0,53.0,-100.00,WNW,283,2.0,5.0,79,0.00,,,0.76,0.000000,,2013-07-27 03:52:00,
2013-07-26 23:02:00,60.0,53.0,-100.00,WNW,283,2.0,5.0,79,0.00,,,0.76,0.000000,,2013-07-27 04:02:00,
2013-07-26 23:32:00,58.0,53.0,-100.00,WNW,298,3.0,5.0,84,0.00,,,0.76,0.000000,,2013-07-27 04:32:00,
2013-07-26 23:43:00,58.0,53.0,-100.00,WNW,298,3.0,5.0,84,0.00,,,0.76,0.000000,,2013-07-27 04:43:00,
2013-07-26 23:53:00,58.0,53.0,-100.00,WNW,298,3.0,5.0,84,0.00,,,0.76,0.000000,,2013-07-27 04:53:00,